createdAt,value
2022-09-07T00:02:08.349Z,92771.09
2022-09-07T00:05:11.859Z,92767.19
2022-09-07T00:08:17.210Z,92749.88
2022-09-07T00:11:21.595Z,92754.03
2022-09-07T00:14:25.276Z,92757.47
2022-09-07T00:17:28.727Z,92753.59
2022-09-07T00:20:32.422Z,92762.34
2022-09-07T00:23:37.360Z,92778.47
2022-09-07T00:26:40.888Z,92779.94
2022-09-07T00:29:44.694Z,92783.97
2022-09-07T00:32:47.893Z,92774.69
2022-09-07T00:35:52.247Z,92773.44
2022-09-07T00:38:55.949Z,92789.50
2022-09-07T00:41:58.980Z,92772.25
2022-09-07T00:45:07.930Z,92772.34
2022-09-07T00:48:18.789Z,92754.47
2022-09-07T00:51:35.180Z,92733.19
2022-09-07T00:54:43.540Z,92752.66
2022-09-07T00:57:50.581Z,92755.41
2022-09-07T01:00:55.774Z,92748.06
2022-09-07T01:04:01.780Z,92752.78
2022-09-07T01:07:09.385Z,92747.38
2022-09-07T01:10:13.656Z,92729.16
2022-09-07T01:13:17.801Z,92726.34
2022-09-07T01:16:40.632Z,92726.19
2022-09-07T01:19:44.835Z,92726.84
2022-09-07T01:23:00.686Z,92734.63
2022-09-07T01:26:41.608Z,92735.75
2022-09-07T01:30:03.183Z,92720.38
2022-09-07T01:33:07.365Z,92728.66
2022-09-07T01:36:30.039Z,92723.19
2022-09-07T01:39:51.406Z,92723.94
2022-09-07T01:43:00.901Z,92705.31
2022-09-07T01:46:12.838Z,92702.00
2022-09-07T01:50:02.795Z,92706.44
2022-09-07T01:53:12.629Z,92695.47
2022-09-07T01:56:24.287Z,92691.81
2022-09-07T01:59:42.335Z,92701.47
2022-09-07T02:03:19.179Z,92688.91
2022-09-07T02:06:45.311Z,92684.66
2022-09-07T02:09:52.027Z,92691.50
2022-09-07T02:13:00.312Z,92692.66
2022-09-07T02:16:07.515Z,92685.13
2022-09-07T02:19:17.789Z,92697.31
2022-09-07T02:22:28.988Z,92688.59
2022-09-07T02:25:46.217Z,92689.16
2022-09-07T02:28:50.402Z,92691.50
2022-09-07T02:31:54.641Z,92699.59
2022-09-07T02:34:58.624Z,92691.75
2022-09-07T02:38:06.344Z,92692.22
2022-09-07T02:41:36.265Z,92682.75
2022-09-07T02:44:43.139Z,92690.13
2022-09-07T02:48:04.662Z,92683.25
2022-09-07T02:51:22.147Z,92674.41
2022-09-07T02:54:43.386Z,92670.09
2022-09-07T02:58:05.093Z,92669.81
2022-09-07T03:01:22.356Z,92669.22
2022-09-07T03:04:47.458Z,92670.25
2022-09-07T03:07:57.227Z,92671.97
2022-09-07T03:11:01.068Z,92665.78
2022-09-07T03:14:16.929Z,92669.44
2022-09-07T03:17:21.528Z,92665.75
2022-09-07T03:20:25.415Z,92656.16
2022-09-07T03:23:29.432Z,92659.06
2022-09-07T03:26:32.941Z,92645.00
2022-09-07T03:29:40.184Z,92640.97
2022-09-07T03:32:44.828Z,92641.34
2022-09-07T03:35:59.224Z,92633.69
2022-09-07T03:39:02.996Z,92636.59
2022-09-07T03:42:06.496Z,92631.34
2022-09-07T03:45:10.908Z,92625.25
2022-09-07T03:48:14.268Z,92621.63
2022-09-07T03:51:19.154Z,92639.41
2022-09-07T03:54:23.683Z,92655.91
2022-09-07T03:57:27.041Z,92646.69
2022-09-07T04:00:31.262Z,92642.97
2022-09-07T04:03:34.899Z,92645.34
2022-09-07T04:06:38.380Z,92649.56
2022-09-07T04:09:42.077Z,92648.41
2022-09-07T04:12:46.193Z,92646.50
2022-09-07T04:15:53.362Z,92644.25
2022-09-07T04:18:59.587Z,92643.88
2022-09-07T04:22:02.748Z,92651.94
2022-09-07T04:25:07.032Z,92648.56
2022-09-07T04:28:10.755Z,92653.56
2022-09-07T04:31:19.823Z,92652.16
2022-09-07T04:34:23.683Z,92663.25
2022-09-07T04:37:27.168Z,92657.97
2022-09-07T04:40:31.093Z,92663.66
2022-09-07T04:43:35.938Z,92659.06
2022-09-07T04:46:39.723Z,92660.63
2022-09-07T04:49:43.841Z,92666.91
2022-09-07T04:52:46.869Z,92663.09
2022-09-07T04:55:50.207Z,92661.84
2022-09-07T04:58:53.459Z,92659.78
2022-09-07T05:01:57.591Z,92653.66
2022-09-07T05:05:02.850Z,92656.28
2022-09-07T05:08:06.797Z,92660.69
2022-09-07T05:11:12.266Z,92647.53
2022-09-07T05:14:15.784Z,92637.56
2022-09-07T05:17:19.798Z,92640.41
2022-09-07T05:20:23.923Z,92642.38
2022-09-07T05:23:27.769Z,92647.81
2022-09-07T05:26:33.930Z,92649.88
2022-09-07T05:33:01.509Z,92658.03
2022-09-07T05:36:07.263Z,92662.59
2022-09-07T05:39:11.314Z,92656.06
2022-09-07T05:42:15.251Z,92651.41
2022-09-07T05:45:18.937Z,92663.81
2022-09-07T05:48:23.112Z,92660.50
2022-09-07T05:51:26.163Z,92661.84
2022-09-07T05:54:30.007Z,92660.03
2022-09-07T05:57:32.933Z,92655.69
2022-09-07T06:00:36.361Z,92648.34
2022-09-07T06:03:41.912Z,92647.91
2022-09-07T06:06:54.598Z,92662.31
2022-09-07T06:13:32.692Z,92656.94
2022-09-07T06:16:36.135Z,92650.41
2022-09-07T06:19:39.342Z,92651.25
2022-09-07T06:22:42.640Z,92651.88
2022-09-07T06:25:50.350Z,92657.00
2022-09-07T06:28:57.746Z,92660.06
2022-09-07T06:35:24.892Z,92661.44
2022-09-07T06:38:38.129Z,92665.78
2022-09-07T06:45:07.597Z,92658.50
2022-09-07T06:48:11.431Z,92657.09
2022-09-07T06:51:19.457Z,92660.41
2022-09-07T06:57:46.849Z,92665.13
2022-09-07T07:00:50.768Z,92673.31
2022-09-07T07:03:54.925Z,92670.56
2022-09-07T07:06:58.514Z,92659.03
2022-09-07T07:10:02.257Z,92664.59
2022-09-07T07:13:06.781Z,92665.31
2022-09-07T07:16:12.952Z,92668.69
2022-09-07T07:19:17.086Z,92668.09
2022-09-07T07:25:44.616Z,92677.56
2022-09-07T07:32:02.846Z,92674.00
2022-09-07T07:35:07.948Z,92680.03
2022-09-07T07:48:21.798Z,92687.25
2022-09-07T07:51:25.647Z,92678.59
2022-09-07T07:54:29.226Z,92684.72
2022-09-07T07:57:33.330Z,92684.44
2022-09-07T08:00:51.011Z,92689.00
2022-09-07T08:03:56.827Z,92680.19
2022-09-07T08:07:00.508Z,92679.09
2022-09-07T08:10:04.048Z,92675.97
2022-09-07T08:13:08.069Z,92683.53
2022-09-07T08:16:13.403Z,92685.06
2022-09-07T08:19:16.654Z,92679.22
2022-09-07T08:22:20.922Z,92678.06
2022-09-07T08:25:25.886Z,92675.47
2022-09-07T08:28:32.375Z,92678.97
2022-09-07T08:31:35.767Z,92677.09
2022-09-07T08:34:39.805Z,92682.09
2022-09-07T08:37:43.434Z,92683.66
2022-09-07T08:40:48.043Z,92687.09
2022-09-07T08:44:00.411Z,92689.16
2022-09-07T08:47:24.375Z,92686.31
2022-09-07T08:50:34.269Z,92689.16
2022-09-07T08:53:45.909Z,92694.72
2022-09-07T09:00:19.765Z,92695.81
2022-09-07T09:03:33.128Z,92685.63
2022-09-07T09:07:04.754Z,92690.97
2022-09-07T09:10:08.181Z,92695.19
2022-09-07T09:13:32.052Z,92698.56
2022-09-07T09:16:44.434Z,92702.69
2022-09-07T09:19:59.397Z,92695.13
2022-09-07T09:23:12.895Z,92693.09
2022-09-07T09:26:24.460Z,92696.47
2022-09-07T09:29:29.115Z,92701.22
2022-09-07T09:32:44.567Z,92695.81
2022-09-07T09:35:53.600Z,92701.16
2022-09-07T09:38:58.063Z,92707.38
2022-09-07T09:42:17.704Z,92712.75
2022-09-07T09:46:12.234Z,92702.56
2022-09-07T09:49:01.292Z,92711.47
2022-09-07T09:52:29.677Z,92714.31
2022-09-07T09:55:38.966Z,92708.53
2022-09-07T10:06:02.033Z,92725.63
2022-09-07T10:09:15.705Z,92728.47
2022-09-07T10:12:33.704Z,92729.72
2022-09-07T10:15:42.376Z,92735.94
2022-09-07T10:19:00.408Z,92733.34
2022-09-07T10:22:39.638Z,92737.19
2022-09-07T10:26:29.927Z,92742.84
2022-09-07T10:29:37.711Z,92735.94
2022-09-07T10:33:21.548Z,92752.38
2022-09-07T10:36:46.728Z,92728.47
2022-09-07T10:40:44.806Z,92740.94
2022-09-07T10:43:50.704Z,92740.50
2022-09-07T10:47:11.830Z,92756.72
2022-09-07T10:50:50.946Z,92763.56
2022-09-07T10:54:30.977Z,92767.00
2022-09-07T10:59:07.100Z,92759.69
2022-09-07T11:07:30.554Z,92771.25
2022-09-07T11:11:02.226Z,92781.41
2022-09-07T11:14:50.048Z,92779.13
2022-09-07T11:18:29.109Z,92781.84
2022-09-07T11:22:00.278Z,92785.94
2022-09-07T11:25:31.365Z,92798.00
2022-09-07T11:33:06.377Z,92810.56
2022-09-07T11:36:24.239Z,92812.13
2022-09-07T11:40:07.634Z,92823.16
2022-09-07T11:43:45.865Z,92821.25
2022-09-07T11:46:57.008Z,92839.06
2022-09-07T11:50:04.150Z,92827.16
2022-09-07T11:53:27.303Z,92838.16
2022-09-07T11:57:01.044Z,92836.28
2022-09-07T12:00:12.936Z,92840.50
2022-09-07T12:03:38.062Z,92843.34
2022-09-07T12:07:14.127Z,92857.03
2022-09-07T12:10:48.086Z,92854.53
2022-09-07T12:14:18.473Z,92864.19
2022-09-07T12:17:48.457Z,92871.09
2022-09-07T12:20:57.394Z,92867.28
2022-09-07T12:24:02.741Z,92880.94
2022-09-07T12:27:13.761Z,92874.91
2022-09-07T12:31:06.555Z,92883.13
2022-09-07T12:34:36.658Z,92889.38
2022-09-07T12:38:09.927Z,92890.84
2022-09-07T12:45:57.585Z,92899.84
2022-09-07T12:49:28.171Z,92901.84
2022-09-07T12:52:52.533Z,92908.66
2022-09-07T12:56:16.309Z,92913.47
2022-09-07T13:00:08.053Z,92918.13
2022-09-07T13:07:34.529Z,92929.69
2022-09-07T13:10:45.154Z,92933.22
2022-09-07T13:14:19.953Z,92933.22
2022-09-07T13:17:45.703Z,92939.31
2022-09-07T13:21:09.804Z,92939.34
2022-09-07T13:27:55.751Z,92944.91
2022-09-07T13:31:27.915Z,92946.38
2022-09-07T13:34:35.617Z,92943.09
2022-09-07T13:37:53.410Z,92934.44
2022-09-07T13:41:06.140Z,92932.53
2022-09-07T13:44:39.903Z,92939.34
2022-09-07T13:47:55.769Z,92950.94
2022-09-07T13:51:42.694Z,92953.72
2022-09-07T13:54:54.535Z,92953.13
2022-09-07T13:58:20.425Z,92959.97
2022-09-07T14:01:27.058Z,92967.50
2022-09-07T14:04:44.071Z,92962.88
2022-09-07T14:07:48.634Z,92965.06
2022-09-07T14:10:52.604Z,92969.22
2022-09-07T14:14:19.305Z,92977.41
2022-09-07T14:17:24.588Z,92987.56
2022-09-07T14:20:29.030Z,92986.31
2022-09-07T14:23:35.867Z,92984.41
2022-09-07T14:26:48.268Z,92990.53
2022-09-07T14:29:52.283Z,92994.72
2022-09-07T14:33:03.763Z,93001.44
2022-09-07T14:36:29.445Z,93006.25
2022-09-07T14:39:39.254Z,93010.34
2022-09-07T14:42:43.889Z,93012.41
2022-09-07T14:45:47.673Z,93010.38
2022-09-07T14:48:55.319Z,93027.16
2022-09-07T14:52:00.801Z,93027.22
2022-09-07T14:55:28.610Z,93028.56
2022-09-07T14:58:32.903Z,93029.31
2022-09-07T15:01:37.718Z,93039.41
2022-09-07T15:04:41.157Z,93044.81
2022-09-07T15:07:55.329Z,93045.53
2022-09-07T15:11:39.989Z,93050.91
2022-09-07T15:14:43.647Z,93048.84
2022-09-07T15:17:47.639Z,93046.22
2022-09-07T15:20:52.900Z,93052.94
2022-09-07T15:23:59.050Z,93057.66
2022-09-07T15:27:03.836Z,93052.91
2022-09-07T15:30:10.344Z,93062.31
2022-09-07T15:33:14.373Z,93063.66
2022-09-07T15:36:19.121Z,93071.06
2022-09-07T15:39:28.799Z,93070.41
2022-09-07T15:45:56.828Z,93068.44
2022-09-07T15:49:01.668Z,93075.19
2022-09-07T15:52:05.837Z,93071.84
2022-09-07T15:55:10.300Z,93083.97
2022-09-07T15:58:14.431Z,93085.34
2022-09-07T16:04:42.223Z,93084.75
2022-09-07T16:11:28.377Z,93096.88
2022-09-07T16:14:35.090Z,93096.25
2022-09-07T16:17:47.247Z,93096.94
2022-09-07T16:20:53.680Z,93104.97
2022-09-07T16:23:57.232Z,93099.59
2022-09-07T16:27:01.585Z,93105.69
2022-09-07T16:30:06.715Z,93107.69
2022-09-07T16:33:10.659Z,93113.09
2022-09-07T16:36:16.536Z,93116.44
2022-09-07T16:39:20.190Z,93111.06
2022-09-07T16:42:23.986Z,93124.50
2022-09-07T16:48:52.365Z,93131.88
2022-09-07T16:51:56.082Z,93131.19
2022-09-07T16:54:59.779Z,93137.94
2022-09-07T17:01:29.697Z,93143.25
2022-09-07T17:04:33.702Z,93141.94
2022-09-07T17:07:37.662Z,93143.94
2022-09-07T17:10:41.401Z,93139.25
2022-09-07T17:13:46.126Z,93141.22
2022-09-07T17:16:49.971Z,93150.63
2022-09-07T17:19:53.938Z,93155.31
2022-09-07T17:22:57.630Z,93147.28
2022-09-07T17:26:15.797Z,93160.69
2022-09-07T17:29:18.955Z,93160.03
2022-09-07T17:32:24.571Z,93156.66
2022-09-07T17:35:30.764Z,93160.66
2022-09-07T17:42:02.857Z,93172.03
2022-09-07T17:45:08.706Z,93168.63
2022-09-07T17:48:11.787Z,93172.69
2022-09-07T17:51:17.142Z,93174.66
2022-09-07T17:54:20.262Z,93169.97
2022-09-07T17:57:24.784Z,93172.00
2022-09-07T18:00:28.026Z,93174.03
2022-09-07T18:03:36.005Z,93178.03
2022-09-07T18:06:40.300Z,93176.06
2022-09-07T18:09:44.681Z,93172.66
2022-09-07T18:12:48.172Z,93172.66
2022-09-07T18:15:52.769Z,93165.94
2022-09-07T18:18:59.971Z,93169.97
2022-09-07T18:22:04.979Z,93173.31
2022-09-07T18:25:10.367Z,93180.00
2022-09-07T18:31:39.689Z,93185.28
2022-09-07T18:34:48.271Z,93180.47
2022-09-07T18:37:54.541Z,93173.00
2022-09-07T18:41:12.538Z,93178.31
2022-09-07T18:47:41.052Z,93180.81
2022-09-07T18:50:44.411Z,93186.19
2022-09-07T18:53:48.488Z,93175.41
2022-09-07T18:56:51.658Z,93185.44
2022-09-07T18:59:55.455Z,93186.09
2022-09-07T19:02:59.729Z,93199.41
2022-09-07T19:06:14.193Z,93200.75
2022-09-07T19:09:18.008Z,93198.00
2022-09-07T19:12:21.769Z,93205.34
2022-09-07T19:15:24.824Z,93205.97
2022-09-07T19:18:28.446Z,93205.28
2022-09-07T19:21:37.865Z,93216.03
2022-09-07T19:24:41.611Z,93223.38
2022-09-07T19:27:44.935Z,93225.38
2022-09-07T19:30:48.785Z,93224.72
2022-09-07T19:33:59.646Z,93221.97
2022-09-07T19:37:04.718Z,93228.66
2022-09-07T19:40:14.761Z,93239.38
2022-09-07T19:43:22.190Z,93232.66
2022-09-07T19:46:26.341Z,93237.31
2022-09-07T19:49:31.134Z,93242.00
2022-09-07T19:52:35.177Z,93232.59
2022-09-07T19:55:38.555Z,93221.16
2022-09-07T19:58:44.260Z,93237.91
2022-09-07T20:01:49.936Z,93237.13
2022-09-07T20:04:53.274Z,93245.13
2022-09-07T20:07:56.932Z,93243.75
2022-09-07T20:11:05.764Z,93250.47
2022-09-07T20:14:09.496Z,93261.78
2022-09-07T20:17:13.183Z,93253.06
2022-09-07T20:20:17.127Z,93253.63
2022-09-07T20:23:21.785Z,93271.00
2022-09-07T20:26:25.120Z,93269.59
2022-09-07T20:29:29.260Z,93268.19
2022-09-07T20:32:34.253Z,93270.19
2022-09-07T20:35:38.511Z,93271.56
2022-09-07T20:38:47.701Z,93275.63
2022-09-07T20:41:50.841Z,93281.56
2022-09-07T20:44:55.299Z,93278.97
2022-09-07T20:47:59.025Z,93293.69
2022-09-07T20:51:04.702Z,93298.97
2022-09-07T20:54:08.016Z,93291.41
2022-09-07T20:57:11.695Z,93291.94
2022-09-07T21:00:15.438Z,93283.13
2022-09-07T21:03:19.532Z,93291.13
2022-09-07T21:06:25.137Z,93293.91
2022-09-07T21:09:28.134Z,93301.28
2022-09-07T21:12:32.483Z,93305.34
2022-09-07T21:15:40.710Z,93300.63
2022-09-07T21:18:45.094Z,93301.94
2022-09-07T21:21:48.835Z,93305.19
2022-09-07T21:24:52.997Z,93311.75
2022-09-07T21:27:56.335Z,93316.28
2022-09-07T21:31:10.167Z,93318.31
2022-09-07T21:34:14.597Z,93316.25
2022-09-07T21:37:17.555Z,93320.22
2022-09-07T21:40:21.332Z,93316.84
2022-09-07T21:43:25.226Z,93324.16
2022-09-07T21:46:30.661Z,93314.69
2022-09-07T21:49:35.117Z,93327.13
2022-09-07T21:52:39.473Z,93335.50
2022-09-07T21:55:43.085Z,93341.91
2022-09-07T21:58:46.912Z,93337.16
2022-09-07T22:01:50.779Z,93367.72
2022-09-07T22:04:53.694Z,93374.97
2022-09-07T22:07:57.692Z,93380.81
2022-09-07T22:11:10.547Z,93383.56
2022-09-07T22:14:14.297Z,93379.53
2022-09-07T22:17:18.102Z,93377.63
2022-09-07T22:20:22.376Z,93370.31
2022-09-07T22:23:25.509Z,93367.84
2022-09-07T22:26:31.816Z,93372.66
2022-09-07T22:29:35.515Z,93382.03
2022-09-07T22:32:38.828Z,93386.91
2022-09-07T22:35:42.536Z,93393.06
2022-09-07T22:38:47.449Z,93405.09
2022-09-07T22:41:51.040Z,93407.69
2022-09-07T22:44:55.726Z,93413.72
2022-09-07T22:47:59.428Z,93408.75
2022-09-07T22:51:04.039Z,93408.28
2022-09-07T22:54:07.178Z,93415.03
2022-09-07T22:57:11.400Z,93415.28
2022-09-07T23:00:14.675Z,93424.97
2022-09-07T23:03:19.392Z,93422.56
2022-09-07T23:06:31.270Z,93423.81
2022-09-07T23:09:35.109Z,93420.53
2022-09-07T23:12:40.862Z,93430.06
2022-09-07T23:15:44.804Z,93432.25
2022-09-07T23:18:47.902Z,93428.63
2022-09-07T23:21:51.997Z,93427.53
2022-09-07T23:24:55.232Z,93420.31
2022-09-07T23:27:59.312Z,93425.16
2022-09-07T23:31:02.658Z,93437.84
2022-09-07T23:34:06.925Z,93442.59
2022-09-07T23:37:11.503Z,93456.50
2022-09-07T23:40:15.296Z,93456.41
2022-09-07T23:43:18.241Z,93459.81
2022-09-07T23:46:22.134Z,93458.56
2022-09-07T23:49:26.213Z,93459.41
2022-09-07T23:52:29.854Z,93449.75
2022-09-07T23:55:33.986Z,93448.66
2022-09-07T23:58:37.704Z,93450.81
